sensor_id;sensor_type;location;lat;lon;timestamp;temperature;humidity
66013;DHT22;52783;50.502;8.190;2022-09-09T00:02:01;16.10;99.90
66013;DHT22;52783;50.502;8.190;2022-09-09T00:04:33;16.10;99.90
66013;DHT22;52783;50.502;8.190;2022-09-09T00:07:14;16.10;99.90
66013;DHT22;52783;50.502;8.190;2022-09-09T00:09:50;16.10;99.90
66013;DHT22;52783;50.502;8.190;2022-09-09T00:14:58;16.10;99.90
66013;DHT22;52783;50.502;8.190;2022-09-09T00:20:12;16.10;99.90
66013;DHT22;52783;50.502;8.190;2022-09-09T00:22:44;16.10;99.90
66013;DHT22;52783;50.502;8.190;2022-09-09T00:25:15;16.00;99.90
66013;DHT22;52783;50.502;8.190;2022-09-09T00:27:47;16.00;99.90
66013;DHT22;52783;50.502;8.190;2022-09-09T00:30:29;15.90;99.90
66013;DHT22;52783;50.502;8.190;2022-09-09T00:33:08;15.90;99.90
66013;DHT22;52783;50.502;8.190;2022-09-09T00:35:38;15.90;99.90
66013;DHT22;52783;50.502;8.190;2022-09-09T00:38:41;15.80;99.90
66013;DHT22;52783;50.502;8.190;2022-09-09T00:43:36;15.80;99.90
66013;DHT22;52783;50.502;8.190;2022-09-09T00:46:21;15.70;99.90
66013;DHT22;52783;50.502;8.190;2022-09-09T00:48:52;15.80;99.90
66013;DHT22;52783;50.502;8.190;2022-09-09T00:51:34;15.70;99.90
66013;DHT22;52783;50.502;8.190;2022-09-09T00:54:23;15.70;99.90
66013;DHT22;52783;50.502;8.190;2022-09-09T00:59:51;15.60;99.90
66013;DHT22;52783;50.502;8.190;2022-09-09T01:02:38;15.70;99.90
66013;DHT22;52783;50.502;8.190;2022-09-09T01:05:11;15.60;99.90
66013;DHT22;52783;50.502;8.190;2022-09-09T01:07:40;15.60;99.90
66013;DHT22;52783;50.502;8.190;2022-09-09T01:10:21;15.70;99.90
66013;DHT22;52783;50.502;8.190;2022-09-09T01:12:51;15.70;99.90
66013;DHT22;52783;50.502;8.190;2022-09-09T01:15:25;15.80;99.90
66013;DHT22;52783;50.502;8.190;2022-09-09T01:18:06;15.80;99.90
66013;DHT22;52783;50.502;8.190;2022-09-09T01:24:23;15.80;99.90
66013;DHT22;52783;50.502;8.190;2022-09-09T01:26:35;15.90;99.90
66013;DHT22;52783;50.502;8.190;2022-09-09T01:29:02;15.80;99.90
66013;DHT22;52783;50.502;8.190;2022-09-09T01:31:39;15.80;99.90
66013;DHT22;52783;50.502;8.190;2022-09-09T01:34:14;15.90;99.90
66013;DHT22;52783;50.502;8.190;2022-09-09T01:36:51;15.80;99.90
66013;DHT22;52783;50.502;8.190;2022-09-09T01:39:20;15.90;99.90
66013;DHT22;52783;50.502;8.190;2022-09-09T01:41:46;15.80;99.90
66013;DHT22;52783;50.502;8.190;2022-09-09T01:44:12;15.90;99.90
66013;DHT22;52783;50.502;8.190;2022-09-09T01:46:38;15.90;99.90
66013;DHT22;52783;50.502;8.190;2022-09-09T01:49:06;15.90;99.90
66013;DHT22;52783;50.502;8.190;2022-09-09T01:51:32;15.90;99.90
66013;DHT22;52783;50.502;8.190;2022-09-09T01:53:58;15.90;99.90
66013;DHT22;52783;50.502;8.190;2022-09-09T01:56:47;15.90;99.90
66013;DHT22;52783;50.502;8.190;2022-09-09T01:59:27;15.90;99.90
66013;DHT22;52783;50.502;8.190;2022-09-09T02:02:19;15.90;99.90
66013;DHT22;52783;50.502;8.190;2022-09-09T02:04:54;15.90;99.90
66013;DHT22;52783;50.502;8.190;2022-09-09T02:07:37;15.90;99.90
66013;DHT22;52783;50.502;8.190;2022-09-09T02:10:27;15.90;99.90
66013;DHT22;52783;50.502;8.190;2022-09-09T02:13:04;16.00;99.90
66013;DHT22;52783;50.502;8.190;2022-09-09T02:18:38;16.00;99.90
66013;DHT22;52783;50.502;8.190;2022-09-09T02:21:06;16.00;99.90
66013;DHT22;52783;50.502;8.190;2022-09-09T02:23:34;16.10;99.90
66013;DHT22;52783;50.502;8.190;2022-09-09T02:26:00;16.10;99.90
66013;DHT22;52783;50.502;8.190;2022-09-09T02:28:30;16.10;99.90
66013;DHT22;52783;50.502;8.190;2022-09-09T02:30:56;16.00;99.90
66013;DHT22;52783;50.502;8.190;2022-09-09T02:33:27;16.10;99.90
66013;DHT22;52783;50.502;8.190;2022-09-09T02:35:55;16.10;99.90
66013;DHT22;52783;50.502;8.190;2022-09-09T02:38:29;16.20;99.90
66013;DHT22;52783;50.502;8.190;2022-09-09T02:40:57;16.20;99.90
66013;DHT22;52783;50.502;8.190;2022-09-09T02:43:24;16.20;99.90
66013;DHT22;52783;50.502;8.190;2022-09-09T02:46:03;16.20;99.90
66013;DHT22;52783;50.502;8.190;2022-09-09T02:48:47;16.20;99.90
66013;DHT22;52783;50.502;8.190;2022-09-09T02:51:35;16.20;99.90
66013;DHT22;52783;50.502;8.190;2022-09-09T02:56:33;16.20;99.90
66013;DHT22;52783;50.502;8.190;2022-09-09T02:59:04;16.20;99.90
66013;DHT22;52783;50.502;8.190;2022-09-09T03:01:30;16.20;99.90
66013;DHT22;52783;50.502;8.190;2022-09-09T03:03:55;16.10;99.90
66013;DHT22;52783;50.502;8.190;2022-09-09T03:06:21;16.20;99.90
66013;DHT22;52783;50.502;8.190;2022-09-09T03:08:47;16.10;99.90
66013;DHT22;52783;50.502;8.190;2022-09-09T03:11:15;16.10;99.90
66013;DHT22;52783;50.502;8.190;2022-09-09T03:13:41;16.10;99.90
66013;DHT22;52783;50.502;8.190;2022-09-09T03:16:06;16.20;99.90
66013;DHT22;52783;50.502;8.190;2022-09-09T03:18:32;16.10;99.90
66013;DHT22;52783;50.502;8.190;2022-09-09T03:20:57;16.20;99.90
66013;DHT22;52783;50.502;8.190;2022-09-09T03:23:25;16.20;99.90
66013;DHT22;52783;50.502;8.190;2022-09-09T03:25:51;16.20;99.90
66013;DHT22;52783;50.502;8.190;2022-09-09T03:28:17;16.20;99.90
66013;DHT22;52783;50.502;8.190;2022-09-09T03:30:43;16.20;99.90
66013;DHT22;52783;50.502;8.190;2022-09-09T03:33:09;16.10;99.90
66013;DHT22;52783;50.502;8.190;2022-09-09T03:35:34;16.10;99.90
66013;DHT22;52783;50.502;8.190;2022-09-09T03:38:00;16.10;99.90
66013;DHT22;52783;50.502;8.190;2022-09-09T03:40:26;16.20;99.90
66013;DHT22;52783;50.502;8.190;2022-09-09T03:42:52;16.20;99.90
66013;DHT22;52783;50.502;8.190;2022-09-09T03:45:17;16.20;99.90
66013;DHT22;52783;50.502;8.190;2022-09-09T03:47:43;16.20;99.90
66013;DHT22;52783;50.502;8.190;2022-09-09T03:50:08;16.20;99.90
66013;DHT22;52783;50.502;8.190;2022-09-09T03:52:37;16.10;99.90
66013;DHT22;52783;50.502;8.190;2022-09-09T03:55:04;16.10;99.90
66013;DHT22;52783;50.502;8.190;2022-09-09T03:57:29;16.10;99.90
66013;DHT22;52783;50.502;8.190;2022-09-09T03:59:55;16.10;99.90
66013;DHT22;52783;50.502;8.190;2022-09-09T04:02:21;16.10;99.90
66013;DHT22;52783;50.502;8.190;2022-09-09T04:04:47;16.10;99.90
66013;DHT22;52783;50.502;8.190;2022-09-09T04:07:12;16.00;99.90
66013;DHT22;52783;50.502;8.190;2022-09-09T04:09:38;16.00;99.90
66013;DHT22;52783;50.502;8.190;2022-09-09T04:12:03;16.00;99.90
66013;DHT22;52783;50.502;8.190;2022-09-09T04:14:29;15.90;99.90
66013;DHT22;52783;50.502;8.190;2022-09-09T04:16:55;16.00;99.90
66013;DHT22;52783;50.502;8.190;2022-09-09T04:19:22;16.00;99.90
66013;DHT22;52783;50.502;8.190;2022-09-09T04:21:48;16.00;99.90
66013;DHT22;52783;50.502;8.190;2022-09-09T04:24:15;15.90;99.90
66013;DHT22;52783;50.502;8.190;2022-09-09T04:26:41;15.90;99.90
66013;DHT22;52783;50.502;8.190;2022-09-09T04:29:07;15.90;99.90
66013;DHT22;52783;50.502;8.190;2022-09-09T04:31:32;15.80;99.90
66013;DHT22;52783;50.502;8.190;2022-09-09T04:33:58;16.00;99.90
66013;DHT22;52783;50.502;8.190;2022-09-09T04:36:27;15.90;99.90
66013;DHT22;52783;50.502;8.190;2022-09-09T04:38:52;15.90;99.90
66013;DHT22;52783;50.502;8.190;2022-09-09T04:41:18;15.90;99.90
66013;DHT22;52783;50.502;8.190;2022-09-09T04:43:43;15.80;99.90
66013;DHT22;52783;50.502;8.190;2022-09-09T04:46:09;15.80;99.90
66013;DHT22;52783;50.502;8.190;2022-09-09T04:48:35;15.80;99.90
66013;DHT22;52783;50.502;8.190;2022-09-09T04:51:04;15.80;99.90
66013;DHT22;52783;50.502;8.190;2022-09-09T04:53:30;15.80;99.90
66013;DHT22;52783;50.502;8.190;2022-09-09T04:56:24;15.80;99.90
66013;DHT22;52783;50.502;8.190;2022-09-09T04:58:52;15.80;99.90
66013;DHT22;52783;50.502;8.190;2022-09-09T05:01:20;15.80;99.90
66013;DHT22;52783;50.502;8.190;2022-09-09T05:03:47;15.80;99.90
66013;DHT22;52783;50.502;8.190;2022-09-09T05:06:18;15.80;99.90
66013;DHT22;52783;50.502;8.190;2022-09-09T05:08:44;15.80;99.90
66013;DHT22;52783;50.502;8.190;2022-09-09T05:11:20;15.80;99.90
66013;DHT22;52783;50.502;8.190;2022-09-09T05:13:48;15.80;99.90
66013;DHT22;52783;50.502;8.190;2022-09-09T05:16:15;15.80;99.90
66013;DHT22;52783;50.502;8.190;2022-09-09T05:18:41;15.90;99.90
66013;DHT22;52783;50.502;8.190;2022-09-09T05:21:08;15.90;99.90
66013;DHT22;52783;50.502;8.190;2022-09-09T05:23:35;15.90;99.90
66013;DHT22;52783;50.502;8.190;2022-09-09T05:26:01;15.80;99.90
66013;DHT22;52783;50.502;8.190;2022-09-09T05:28:27;15.90;99.90
66013;DHT22;52783;50.502;8.190;2022-09-09T05:31:01;15.90;99.90
66013;DHT22;52783;50.502;8.190;2022-09-09T05:33:30;15.90;99.90
66013;DHT22;52783;50.502;8.190;2022-09-09T05:36:04;15.90;99.90
66013;DHT22;52783;50.502;8.190;2022-09-09T05:38:31;15.90;99.90
66013;DHT22;52783;50.502;8.190;2022-09-09T05:40:57;15.90;99.90
66013;DHT22;52783;50.502;8.190;2022-09-09T05:43:24;15.90;99.90
66013;DHT22;52783;50.502;8.190;2022-09-09T05:46:09;15.90;99.90
66013;DHT22;52783;50.502;8.190;2022-09-09T05:48:36;16.00;99.90
66013;DHT22;52783;50.502;8.190;2022-09-09T05:51:03;16.00;99.90
66013;DHT22;52783;50.502;8.190;2022-09-09T05:53:29;16.10;99.90
66013;DHT22;52783;50.502;8.190;2022-09-09T05:56:09;16.10;99.90
66013;DHT22;52783;50.502;8.190;2022-09-09T05:58:40;16.10;99.90
66013;DHT22;52783;50.502;8.190;2022-09-09T06:01:08;16.10;99.90
66013;DHT22;52783;50.502;8.190;2022-09-09T06:03:36;16.10;99.90
66013;DHT22;52783;50.502;8.190;2022-09-09T06:06:06;16.10;99.90
66013;DHT22;52783;50.502;8.190;2022-09-09T06:08:37;16.20;99.90
66013;DHT22;52783;50.502;8.190;2022-09-09T06:11:12;16.00;99.90
66013;DHT22;52783;50.502;8.190;2022-09-09T06:13:38;16.10;99.90
66013;DHT22;52783;50.502;8.190;2022-09-09T06:16:08;16.20;99.90
66013;DHT22;52783;50.502;8.190;2022-09-09T06:18:33;16.30;99.90
66013;DHT22;52783;50.502;8.190;2022-09-09T06:21:02;16.40;99.70
66013;DHT22;52783;50.502;8.190;2022-09-09T06:23:32;16.40;99.80
66013;DHT22;52783;50.502;8.190;2022-09-09T06:26:20;16.50;99.70
66013;DHT22;52783;50.502;8.190;2022-09-09T06:28:47;16.50;99.40
66013;DHT22;52783;50.502;8.190;2022-09-09T06:31:15;16.70;98.90
66013;DHT22;52783;50.502;8.190;2022-09-09T06:33:48;16.70;98.60
66013;DHT22;52783;50.502;8.190;2022-09-09T06:36:17;16.80;98.30
66013;DHT22;52783;50.502;8.190;2022-09-09T06:38:44;16.70;97.50
66013;DHT22;52783;50.502;8.190;2022-09-09T06:41:11;16.90;97.90
66013;DHT22;52783;50.502;8.190;2022-09-09T06:43:37;16.60;97.60
66013;DHT22;52783;50.502;8.190;2022-09-09T06:46:09;16.60;97.50
66013;DHT22;52783;50.502;8.190;2022-09-09T06:48:35;16.90;97.60
66013;DHT22;52783;50.502;8.190;2022-09-09T06:51:08;16.90;97.50
66013;DHT22;52783;50.502;8.190;2022-09-09T06:53:35;17.00;97.70
66013;DHT22;52783;50.502;8.190;2022-09-09T06:56:02;17.20;97.30
66013;DHT22;52783;50.502;8.190;2022-09-09T06:58:43;17.80;96.20
66013;DHT22;52783;50.502;8.190;2022-09-09T07:01:10;18.20;94.00
66013;DHT22;52783;50.502;8.190;2022-09-09T07:03:38;18.50;93.20
66013;DHT22;52783;50.502;8.190;2022-09-09T07:06:05;19.00;92.20
66013;DHT22;52783;50.502;8.190;2022-09-09T07:08:31;19.80;90.40
66013;DHT22;52783;50.502;8.190;2022-09-09T07:11:05;19.60;86.30
66013;DHT22;52783;50.502;8.190;2022-09-09T07:13:31;19.30;87.60
66013;DHT22;52783;50.502;8.190;2022-09-09T07:16:08;19.60;87.60
66013;DHT22;52783;50.502;8.190;2022-09-09T07:18:34;19.20;89.30
66013;DHT22;52783;50.502;8.190;2022-09-09T07:21:01;19.30;89.20
66013;DHT22;52783;50.502;8.190;2022-09-09T07:23:28;19.20;89.70
66013;DHT22;52783;50.502;8.190;2022-09-09T07:25:54;19.00;89.70
66013;DHT22;52783;50.502;8.190;2022-09-09T07:28:22;18.80;90.20
66013;DHT22;52783;50.502;8.190;2022-09-09T07:30:56;18.80;90.50
66013;DHT22;52783;50.502;8.190;2022-09-09T07:33:22;18.70;90.20
66013;DHT22;52783;50.502;8.190;2022-09-09T07:35:49;18.60;90.70
66013;DHT22;52783;50.502;8.190;2022-09-09T07:38:15;18.60;91.00
66013;DHT22;52783;50.502;8.190;2022-09-09T07:40:40;18.20;89.20
66013;DHT22;52783;50.502;8.190;2022-09-09T07:43:06;18.30;90.80
66013;DHT22;52783;50.502;8.190;2022-09-09T07:45:33;17.80;90.80
66013;DHT22;52783;50.502;8.190;2022-09-09T07:47:59;18.10;91.60
66013;DHT22;52783;50.502;8.190;2022-09-09T07:50:25;18.60;91.30
66013;DHT22;52783;50.502;8.190;2022-09-09T07:52:52;18.70;90.00
66013;DHT22;52783;50.502;8.190;2022-09-09T07:55:19;19.20;88.20
66013;DHT22;52783;50.502;8.190;2022-09-09T07:57:45;18.80;89.60
66013;DHT22;52783;50.502;8.190;2022-09-09T08:00:11;18.90;90.20
66013;DHT22;52783;50.502;8.190;2022-09-09T08:02:36;19.00;89.00
66013;DHT22;52783;50.502;8.190;2022-09-09T08:05:02;19.00;89.60
66013;DHT22;52783;50.502;8.190;2022-09-09T08:07:28;18.90;88.20
66013;DHT22;52783;50.502;8.190;2022-09-09T08:09:54;19.50;86.90
66013;DHT22;52783;50.502;8.190;2022-09-09T08:12:21;20.10;85.10
66013;DHT22;52783;50.502;8.190;2022-09-09T08:14:47;20.60;80.80
66013;DHT22;52783;50.502;8.190;2022-09-09T08:17:13;21.30;77.00
66013;DHT22;52783;50.502;8.190;2022-09-09T08:19:39;22.10;73.60
66013;DHT22;52783;50.502;8.190;2022-09-09T08:22:05;21.20;73.10
66013;DHT22;52783;50.502;8.190;2022-09-09T08:24:30;21.30;75.60
66013;DHT22;52783;50.502;8.190;2022-09-09T08:26:56;20.60;76.70
66013;DHT22;52783;50.502;8.190;2022-09-09T08:29:22;20.70;76.20
66013;DHT22;52783;50.502;8.190;2022-09-09T08:31:52;19.80;77.00
66013;DHT22;52783;50.502;8.190;2022-09-09T08:34:20;20.00;78.80
66013;DHT22;52783;50.502;8.190;2022-09-09T08:36:47;19.90;80.20
66013;DHT22;52783;50.502;8.190;2022-09-09T08:39:14;19.90;81.10
66013;DHT22;52783;50.502;8.190;2022-09-09T08:47:07;19.80;80.90
66013;DHT22;52783;50.502;8.190;2022-09-09T08:50:11;19.80;81.00
66013;DHT22;52783;50.502;8.190;2022-09-09T08:52:49;19.70;81.40
66013;DHT22;52783;50.502;8.190;2022-09-09T08:55:36;20.80;78.00
66013;DHT22;52783;50.502;8.190;2022-09-09T08:58:13;21.00;73.50
66013;DHT22;52783;50.502;8.190;2022-09-09T09:11:26;20.50;69.90
66013;DHT22;52783;50.502;8.190;2022-09-09T09:13:57;20.50;69.90
66013;DHT22;52783;50.502;8.190;2022-09-09T09:19:14;20.60;73.00
66013;DHT22;52783;50.502;8.190;2022-09-09T09:21:43;21.30;70.10
66013;DHT22;52783;50.502;8.190;2022-09-09T09:24:20;22.00;64.80
66013;DHT22;52783;50.502;8.190;2022-09-09T09:26:48;22.90;63.60
66013;DHT22;52783;50.502;8.190;2022-09-09T09:29:17;23.60;57.60
66013;DHT22;52783;50.502;8.190;2022-09-09T09:31:51;23.00;56.80
66013;DHT22;52783;50.502;8.190;2022-09-09T09:34:17;23.10;56.50
66013;DHT22;52783;50.502;8.190;2022-09-09T09:36:58;23.50;55.20
66013;DHT22;52783;50.502;8.190;2022-09-09T09:39:31;23.00;55.00
66013;DHT22;52783;50.502;8.190;2022-09-09T09:42:12;23.40;56.10
66013;DHT22;52783;50.502;8.190;2022-09-09T09:44:40;23.90;54.60
66013;DHT22;52783;50.502;8.190;2022-09-09T09:49:59;23.80;50.60
66013;DHT22;52783;50.502;8.190;2022-09-09T09:52:31;23.40;52.30
66013;DHT22;52783;50.502;8.190;2022-09-09T09:54:58;22.80;53.80
66013;DHT22;52783;50.502;8.190;2022-09-09T09:57:28;22.60;55.00
66013;DHT22;52783;50.502;8.190;2022-09-09T10:00:24;22.50;56.70
66013;DHT22;52783;50.502;8.190;2022-09-09T10:02:50;22.60;56.60
66013;DHT22;52783;50.502;8.190;2022-09-09T10:05:30;21.90;57.50
66013;DHT22;52783;50.502;8.190;2022-09-09T10:21:28;21.30;61.20
66013;DHT22;52783;50.502;8.190;2022-09-09T10:24:22;21.60;60.00
66013;DHT22;52783;50.502;8.190;2022-09-09T10:29:51;21.50;58.90
66013;DHT22;52783;50.502;8.190;2022-09-09T10:32:36;21.10;59.00
66013;DHT22;52783;50.502;8.190;2022-09-09T10:35:14;21.20;59.60
66013;DHT22;52783;50.502;8.190;2022-09-09T10:43:32;21.00;59.70
66013;DHT22;52783;50.502;8.190;2022-09-09T10:46:10;20.80;59.70
66013;DHT22;52783;50.502;8.190;2022-09-09T10:54:28;21.60;56.90
66013;DHT22;52783;50.502;8.190;2022-09-09T10:56:58;22.10;55.50
66013;DHT22;52783;50.502;8.190;2022-09-09T10:59:30;22.40;54.20
66013;DHT22;52783;50.502;8.190;2022-09-09T11:02:18;22.50;51.70
66013;DHT22;52783;50.502;8.190;2022-09-09T11:04:49;22.50;52.20
66013;DHT22;52783;50.502;8.190;2022-09-09T11:07:26;22.80;51.60
66013;DHT22;52783;50.502;8.190;2022-09-09T11:09:57;22.60;52.60
66013;DHT22;52783;50.502;8.190;2022-09-09T11:12:25;22.90;53.30
66013;DHT22;52783;50.502;8.190;2022-09-09T11:14:54;22.60;50.60
66013;DHT22;52783;50.502;8.190;2022-09-09T11:17:50;22.40;51.20
66013;DHT22;52783;50.502;8.190;2022-09-09T11:20:15;22.20;52.20
66013;DHT22;52783;50.502;8.190;2022-09-09T11:22:52;22.00;53.40
66013;DHT22;52783;50.502;8.190;2022-09-09T11:25:25;21.70;54.10
66013;DHT22;52783;50.502;8.190;2022-09-09T11:44:39;22.10;51.50
66013;DHT22;52783;50.502;8.190;2022-09-09T11:47:29;22.30;52.60
66013;DHT22;52783;50.502;8.190;2022-09-09T11:52:42;22.20;51.70
66013;DHT22;52783;50.502;8.190;2022-09-09T11:55:31;22.30;52.00
66013;DHT22;52783;50.502;8.190;2022-09-09T12:00:41;22.30;50.80
66013;DHT22;52783;50.502;8.190;2022-09-09T12:06:20;22.50;50.10
66013;DHT22;52783;50.502;8.190;2022-09-09T12:08:54;22.70;49.70
66013;DHT22;52783;50.502;8.190;2022-09-09T12:11:26;22.80;49.30
66013;DHT22;52783;50.502;8.190;2022-09-09T12:13:58;22.70;48.80
66013;DHT22;52783;50.502;8.190;2022-09-09T12:16:35;22.80;47.80
66013;DHT22;52783;50.502;8.190;2022-09-09T12:19:15;22.80;48.60
66013;DHT22;52783;50.502;8.190;2022-09-09T12:21:45;22.70;49.30
66013;DHT22;52783;50.502;8.190;2022-09-09T12:24:24;22.80;49.60
66013;DHT22;52783;50.502;8.190;2022-09-09T12:32:14;22.60;51.90
66013;DHT22;52783;50.502;8.190;2022-09-09T12:34:46;22.60;50.40
66013;DHT22;52783;50.502;8.190;2022-09-09T12:40:00;23.10;50.10
66013;DHT22;52783;50.502;8.190;2022-09-09T12:42:27;23.10;49.60
66013;DHT22;52783;50.502;8.190;2022-09-09T12:44:56;22.70;49.80
66013;DHT22;52783;50.502;8.190;2022-09-09T12:47:36;23.00;50.60
66013;DHT22;52783;50.502;8.190;2022-09-09T12:50:04;23.00;50.70
66013;DHT22;52783;50.502;8.190;2022-09-09T12:52:35;22.80;50.30
66013;DHT22;52783;50.502;8.190;2022-09-09T12:55:04;22.50;51.70
66013;DHT22;52783;50.502;8.190;2022-09-09T12:57:36;22.20;52.50
66013;DHT22;52783;50.502;8.190;2022-09-09T13:00:16;21.90;54.20
66013;DHT22;52783;50.502;8.190;2022-09-09T13:02:51;21.90;54.40
66013;DHT22;52783;50.502;8.190;2022-09-09T13:05:20;21.90;54.90
66013;DHT22;52783;50.502;8.190;2022-09-09T13:07:46;22.30;54.90
66013;DHT22;52783;50.502;8.190;2022-09-09T13:10:14;22.20;54.20
66013;DHT22;52783;50.502;8.190;2022-09-09T13:12:40;22.00;55.10
66013;DHT22;52783;50.502;8.190;2022-09-09T13:15:20;22.40;54.30
66013;DHT22;52783;50.502;8.190;2022-09-09T13:17:53;22.30;49.80
66013;DHT22;52783;50.502;8.190;2022-09-09T13:20:21;22.20;50.90
66013;DHT22;52783;50.502;8.190;2022-09-09T13:22:49;22.40;51.70
66013;DHT22;52783;50.502;8.190;2022-09-09T13:27:59;22.20;52.20
66013;DHT22;52783;50.502;8.190;2022-09-09T13:30:31;22.10;53.50
66013;DHT22;52783;50.502;8.190;2022-09-09T13:35:49;22.00;54.40
66013;DHT22;52783;50.502;8.190;2022-09-09T13:38:16;22.20;55.10
66013;DHT22;52783;50.502;8.190;2022-09-09T13:40:59;22.10;54.10
66013;DHT22;52783;50.502;8.190;2022-09-09T13:43:27;22.20;53.90
66013;DHT22;52783;50.502;8.190;2022-09-09T13:45:59;22.00;54.00
66013;DHT22;52783;50.502;8.190;2022-09-09T13:48:26;22.10;56.70
66013;DHT22;52783;50.502;8.190;2022-09-09T13:51:00;22.10;55.00
66013;DHT22;52783;50.502;8.190;2022-09-09T13:53:26;21.90;55.50
66013;DHT22;52783;50.502;8.190;2022-09-09T13:55:52;21.70;55.80
66013;DHT22;52783;50.502;8.190;2022-09-09T13:58:18;22.10;56.20
66013;DHT22;52783;50.502;8.190;2022-09-09T14:00:45;22.40;57.30
66013;DHT22;52783;50.502;8.190;2022-09-09T14:03:11;22.60;56.30
66013;DHT22;52783;50.502;8.190;2022-09-09T14:05:36;22.60;56.80
66013;DHT22;52783;50.502;8.190;2022-09-09T14:08:07;22.50;55.60
66013;DHT22;52783;50.502;8.190;2022-09-09T14:10:33;22.50;55.00
66013;DHT22;52783;50.502;8.190;2022-09-09T14:13:02;22.60;55.30
66013;DHT22;52783;50.502;8.190;2022-09-09T14:15:28;22.40;56.00
66013;DHT22;52783;50.502;8.190;2022-09-09T14:17:54;21.90;56.40
66013;DHT22;52783;50.502;8.190;2022-09-09T14:20:20;21.90;57.50
66013;DHT22;52783;50.502;8.190;2022-09-09T14:22:46;21.80;57.90
66013;DHT22;52783;50.502;8.190;2022-09-09T14:25:11;21.60;58.20
66013;DHT22;52783;50.502;8.190;2022-09-09T14:27:39;21.30;59.00
66013;DHT22;52783;50.502;8.190;2022-09-09T14:30:05;21.20;60.10
66013;DHT22;52783;50.502;8.190;2022-09-09T14:32:31;20.90;62.60
66013;DHT22;52783;50.502;8.190;2022-09-09T14:34:57;20.70;60.40
66013;DHT22;52783;50.502;8.190;2022-09-09T14:37:22;20.50;57.50
66013;DHT22;52783;50.502;8.190;2022-09-09T14:39:48;20.20;57.00
66013;DHT22;52783;50.502;8.190;2022-09-09T14:42:15;20.30;59.20
66013;DHT22;52783;50.502;8.190;2022-09-09T14:44:41;20.30;64.90
66013;DHT22;52783;50.502;8.190;2022-09-09T14:47:07;20.30;66.00
66013;DHT22;52783;50.502;8.190;2022-09-09T14:49:34;20.50;66.50
66013;DHT22;52783;50.502;8.190;2022-09-09T14:51:59;20.20;66.70
66013;DHT22;52783;50.502;8.190;2022-09-09T14:54:25;19.80;67.10
66013;DHT22;52783;50.502;8.190;2022-09-09T14:56:50;20.00;68.70
66013;DHT22;52783;50.502;8.190;2022-09-09T14:59:16;19.80;69.20
66013;DHT22;52783;50.502;8.190;2022-09-09T15:01:41;19.60;71.90
66013;DHT22;52783;50.502;8.190;2022-09-09T15:04:07;19.70;72.00
66013;DHT22;52783;50.502;8.190;2022-09-09T15:06:34;19.60;71.70
66013;DHT22;52783;50.502;8.190;2022-09-09T15:09:03;19.70;71.60
66013;DHT22;52783;50.502;8.190;2022-09-09T15:11:31;19.80;70.50
66013;DHT22;52783;50.502;8.190;2022-09-09T15:13:58;19.50;70.70
66013;DHT22;52783;50.502;8.190;2022-09-09T15:16:26;19.50;72.00
66013;DHT22;52783;50.502;8.190;2022-09-09T15:18:54;19.30;73.40
66013;DHT22;52783;50.502;8.190;2022-09-09T15:21:22;19.20;75.20
66013;DHT22;52783;50.502;8.190;2022-09-09T15:23:48;19.10;76.80
66013;DHT22;52783;50.502;8.190;2022-09-09T15:26:15;19.00;78.40
66013;DHT22;52783;50.502;8.190;2022-09-09T15:28:41;19.00;80.40
66013;DHT22;52783;50.502;8.190;2022-09-09T15:31:14;18.90;80.40
66013;DHT22;52783;50.502;8.190;2022-09-09T15:33:41;18.80;82.00
66013;DHT22;52783;50.502;8.190;2022-09-09T15:36:40;18.80;83.00
66013;DHT22;52783;50.502;8.190;2022-09-09T15:39:07;18.90;83.90
66013;DHT22;52783;50.502;8.190;2022-09-09T15:41:35;18.80;84.20
66013;DHT22;52783;50.502;8.190;2022-09-09T15:44:01;18.80;84.80
66013;DHT22;52783;50.502;8.190;2022-09-09T15:48:55;18.70;89.20
66013;DHT22;52783;50.502;8.190;2022-09-09T15:51:21;18.60;91.90
66013;DHT22;52783;50.502;8.190;2022-09-09T15:53:49;18.30;93.50
66013;DHT22;52783;50.502;8.190;2022-09-09T15:56:18;18.10;93.00
66013;DHT22;52783;50.502;8.190;2022-09-09T15:58:44;17.70;94.10
66013;DHT22;52783;50.502;8.190;2022-09-09T16:01:10;17.50;95.00
66013;DHT22;52783;50.502;8.190;2022-09-09T16:03:42;17.30;95.40
66013;DHT22;52783;50.502;8.190;2022-09-09T16:06:08;17.10;95.30
66013;DHT22;52783;50.502;8.190;2022-09-09T16:08:35;17.00;98.50
66013;DHT22;52783;50.502;8.190;2022-09-09T16:11:09;16.90;99.70
66013;DHT22;52783;50.502;8.190;2022-09-09T16:13:39;17.00;99.20
66013;DHT22;52783;50.502;8.190;2022-09-09T16:16:05;17.00;99.40
66013;DHT22;52783;50.502;8.190;2022-09-09T16:18:46;16.90;99.40
66013;DHT22;52783;50.502;8.190;2022-09-09T16:21:15;16.90;99.20
66013;DHT22;52783;50.502;8.190;2022-09-09T16:23:41;16.80;99.70
66013;DHT22;52783;50.502;8.190;2022-09-09T16:26:10;16.90;99.90
66013;DHT22;52783;50.502;8.190;2022-09-09T16:28:35;17.00;99.80
66013;DHT22;52783;50.502;8.190;2022-09-09T16:31:05;16.90;99.90
66013;DHT22;52783;50.502;8.190;2022-09-09T16:33:31;17.00;99.90
66013;DHT22;52783;50.502;8.190;2022-09-09T16:35:57;16.90;99.70
66013;DHT22;52783;50.502;8.190;2022-09-09T16:38:22;16.80;99.80
66013;DHT22;52783;50.502;8.190;2022-09-09T16:40:48;16.40;99.90
66013;DHT22;52783;50.502;8.190;2022-09-09T16:43:15;16.80;99.90
66013;DHT22;52783;50.502;8.190;2022-09-09T16:45:42;16.80;99.90
66013;DHT22;52783;50.502;8.190;2022-09-09T16:48:08;16.80;99.90
66013;DHT22;52783;50.502;8.190;2022-09-09T16:50:34;17.00;99.90
66013;DHT22;52783;50.502;8.190;2022-09-09T16:52:59;16.90;99.90
66013;DHT22;52783;50.502;8.190;2022-09-09T16:55:28;16.90;99.90
66013;DHT22;52783;50.502;8.190;2022-09-09T16:57:53;16.90;99.90
66013;DHT22;52783;50.502;8.190;2022-09-09T17:00:19;16.80;99.90
66013;DHT22;52783;50.502;8.190;2022-09-09T17:02:44;16.80;99.90
66013;DHT22;52783;50.502;8.190;2022-09-09T17:05:10;16.80;99.90
66013;DHT22;52783;50.502;8.190;2022-09-09T17:07:37;16.80;99.90
66013;DHT22;52783;50.502;8.190;2022-09-09T17:10:04;16.70;99.90
66013;DHT22;52783;50.502;8.190;2022-09-09T17:12:31;16.80;99.90
66013;DHT22;52783;50.502;8.190;2022-09-09T17:14:57;16.80;99.90
66013;DHT22;52783;50.502;8.190;2022-09-09T17:17:24;16.80;99.90
66013;DHT22;52783;50.502;8.190;2022-09-09T17:19:50;16.80;99.90
66013;DHT22;52783;50.502;8.190;2022-09-09T17:22:15;16.60;99.90
66013;DHT22;52783;50.502;8.190;2022-09-09T17:24:41;16.60;99.90
66013;DHT22;52783;50.502;8.190;2022-09-09T17:27:07;16.60;99.90
66013;DHT22;52783;50.502;8.190;2022-09-09T17:29:32;16.50;99.90
66013;DHT22;52783;50.502;8.190;2022-09-09T17:32:01;16.60;99.90
66013;DHT22;52783;50.502;8.190;2022-09-09T17:34:27;16.50;99.90
66013;DHT22;52783;50.502;8.190;2022-09-09T17:36:53;16.50;99.90
66013;DHT22;52783;50.502;8.190;2022-09-09T17:39:18;16.40;99.90